sensor_id;sensor_type;location;lat;lon;timestamp;pressure;altitude;pressure_sealevel;temperature;humidity
75594;BME280;64176;49.156;7.810;2023-07-22T00:00:34;99091.94;;;14.58;69.66
75594;BME280;64176;49.156;7.810;2023-07-22T00:03:20;99088.47;;;14.58;69.52
75594;BME280;64176;49.156;7.810;2023-07-22T00:06:10;99090.13;;;14.65;69.01
75594;BME280;64176;49.156;7.810;2023-07-22T00:08:57;99084.78;;;14.77;68.11
75594;BME280;64176;49.156;7.810;2023-07-22T00:11:49;99087.06;;;14.33;69.95
75594;BME280;64176;49.156;7.810;2023-07-22T00:14:35;99088.06;;;14.21;70.22
75594;BME280;64176;49.156;7.810;2023-07-22T00:17:22;99080.75;;;14.53;69.63
75594;BME280;64176;49.156;7.810;2023-07-22T00:20:08;99091.84;;;13.94;71.96
75594;BME280;64176;49.156;7.810;2023-07-22T00:22:58;99087.97;;;14.30;71.86
75594;BME280;64176;49.156;7.810;2023-07-22T00:25:44;99095.66;;;14.41;71.17
75594;BME280;64176;49.156;7.810;2023-07-22T00:28:28;99074.06;;;14.34;70.82
75594;BME280;64176;49.156;7.810;2023-07-22T00:31:12;99084.44;;;14.34;71.26
75594;BME280;64176;49.156;7.810;2023-07-22T00:34:01;99081.50;;;14.63;70.41
75594;BME280;64176;49.156;7.810;2023-07-22T00:36:48;99080.47;;;14.03;72.54
75594;BME280;64176;49.156;7.810;2023-07-22T00:39:31;99080.38;;;14.13;72.59
75594;BME280;64176;49.156;7.810;2023-07-22T00:42:21;99079.19;;;14.40;71.30
75594;BME280;64176;49.156;7.810;2023-07-22T00:45:10;99080.25;;;14.23;72.13
75594;BME280;64176;49.156;7.810;2023-07-22T00:47:54;99087.00;;;14.40;71.44
75594;BME280;64176;49.156;7.810;2023-07-22T00:50:39;99079.88;;;14.56;70.36
75594;BME280;64176;49.156;7.810;2023-07-22T00:53:28;99086.72;;;14.60;70.03
75594;BME280;64176;49.156;7.810;2023-07-22T00:56:12;99082.50;;;14.51;70.22
75594;BME280;64176;49.156;7.810;2023-07-22T00:58:56;99075.72;;;14.38;70.86
75594;BME280;64176;49.156;7.810;2023-07-22T01:01:43;99073.81;;;14.54;70.57
75594;BME280;64176;49.156;7.810;2023-07-22T01:04:27;99064.53;;;14.32;72.26
75594;BME280;64176;49.156;7.810;2023-07-22T01:07:13;99080.91;;;14.38;72.32
75594;BME280;64176;49.156;7.810;2023-07-22T01:10:03;99073.88;;;14.48;71.50
75594;BME280;64176;49.156;7.810;2023-07-22T01:12:49;99076.69;;;14.30;72.50
75594;BME280;64176;49.156;7.810;2023-07-22T01:15:33;99077.59;;;14.27;72.62
75594;BME280;64176;49.156;7.810;2023-07-22T01:18:17;99068.91;;;14.28;72.50
75594;BME280;64176;49.156;7.810;2023-07-22T01:21:06;99063.63;;;14.36;71.72
75594;BME280;64176;49.156;7.810;2023-07-22T01:23:50;99067.81;;;14.47;71.29
75594;BME280;64176;49.156;7.810;2023-07-22T01:26:38;99063.63;;;14.36;71.86
75594;BME280;64176;49.156;7.810;2023-07-22T01:29:25;99057.94;;;14.03;72.69
75594;BME280;64176;49.156;7.810;2023-07-22T01:32:10;99057.94;;;14.03;73.35
75594;BME280;64176;49.156;7.810;2023-07-22T01:34:56;99054.91;;;13.65;74.76
75594;BME280;64176;49.156;7.810;2023-07-22T01:37:41;99063.44;;;13.77;74.47
75594;BME280;64176;49.156;7.810;2023-07-22T01:40:30;99069.03;;;14.17;73.17
75594;BME280;64176;49.156;7.810;2023-07-22T01:43:15;99059.59;;;14.12;73.32
75594;BME280;64176;49.156;7.810;2023-07-22T01:46:02;99069.44;;;13.82;74.59
75594;BME280;64176;49.156;7.810;2023-07-22T01:48:46;99076.47;;;13.74;75.15
75594;BME280;64176;49.156;7.810;2023-07-22T01:51:32;99070.97;;;14.02;74.50
75594;BME280;64176;49.156;7.810;2023-07-22T01:54:21;99068.44;;;13.94;73.93
75594;BME280;64176;49.156;7.810;2023-07-22T01:57:07;99069.41;;;13.85;74.79
75594;BME280;64176;49.156;7.810;2023-07-22T01:59:51;99048.59;;;13.92;74.42
75594;BME280;64176;49.156;7.810;2023-07-22T02:02:36;99054.56;;;13.97;74.05
75594;BME280;64176;49.156;7.810;2023-07-22T02:05:23;99066.81;;;13.85;73.79
75594;BME280;64176;49.156;7.810;2023-07-22T02:08:13;99064.97;;;13.95;73.87
75594;BME280;64176;49.156;7.810;2023-07-22T02:11:05;99057.41;;;13.75;73.38
75594;BME280;64176;49.156;7.810;2023-07-22T02:13:51;99054.78;;;13.77;73.44
75594;BME280;64176;49.156;7.810;2023-07-22T02:16:37;99064.38;;;13.70;73.74
75594;BME280;64176;49.156;7.810;2023-07-22T02:19:21;99065.44;;;13.51;74.90
75594;BME280;64176;49.156;7.810;2023-07-22T02:22:08;99051.44;;;13.69;74.04
75594;BME280;64176;49.156;7.810;2023-07-22T02:24:54;99058.19;;;13.82;73.88
75594;BME280;64176;49.156;7.810;2023-07-22T02:27:43;99066.06;;;13.76;74.04
75594;BME280;64176;49.156;7.810;2023-07-22T02:30:30;99067.13;;;13.58;74.76
75594;BME280;64176;49.156;7.810;2023-07-22T02:33:24;99057.75;;;13.42;75.22
75594;BME280;64176;49.156;7.810;2023-07-22T02:36:12;99061.72;;;13.78;73.44
75594;BME280;64176;49.156;7.810;2023-07-22T02:39:02;99054.19;;;13.52;74.86
75594;BME280;64176;49.156;7.810;2023-07-22T02:41:47;99042.94;;;13.52;75.18
75594;BME280;64176;49.156;7.810;2023-07-22T02:44:36;99055.25;;;13.28;76.24
75594;BME280;64176;49.156;7.810;2023-07-22T02:47:20;99054.09;;;13.60;75.26
75594;BME280;64176;49.156;7.810;2023-07-22T02:50:09;99061.06;;;13.56;75.19
75594;BME280;64176;49.156;7.810;2023-07-22T02:52:53;99060.31;;;13.46;75.49
75594;BME280;64176;49.156;7.810;2023-07-22T02:55:42;99057.94;;;13.16;76.66
75594;BME280;64176;49.156;7.810;2023-07-22T02:58:28;99058.13;;;12.90;78.24
75594;BME280;64176;49.156;7.810;2023-07-22T03:01:18;99056.44;;;12.85;78.79
75594;BME280;64176;49.156;7.810;2023-07-22T03:04:03;99050.28;;;13.02;77.93
75594;BME280;64176;49.156;7.810;2023-07-22T03:06:49;99048.81;;;12.62;79.10
75594;BME280;64176;49.156;7.810;2023-07-22T03:09:38;99071.88;;;13.03;78.50
75594;BME280;64176;49.156;7.810;2023-07-22T03:12:25;99077.09;;;13.00;78.51
75594;BME280;64176;49.156;7.810;2023-07-22T03:15:10;99074.50;;;13.00;78.14
75594;BME280;64176;49.156;7.810;2023-07-22T03:17:56;99076.56;;;12.46;80.20
75594;BME280;64176;49.156;7.810;2023-07-22T03:20:43;99073.91;;;12.58;80.05
75594;BME280;64176;49.156;7.810;2023-07-22T03:23:34;99078.19;;;12.62;78.82
75594;BME280;64176;49.156;7.810;2023-07-22T03:26:19;99072.09;;;12.69;78.67
75594;BME280;64176;49.156;7.810;2023-07-22T03:29:05;99077.38;;;12.50;79.77
75594;BME280;64176;49.156;7.810;2023-07-22T03:31:51;99080.78;;;12.64;79.16
75594;BME280;64176;49.156;7.810;2023-07-22T03:34:38;99079.91;;;12.68;79.22
75594;BME280;64176;49.156;7.810;2023-07-22T03:37:22;99080.63;;;12.91;77.89
75594;BME280;64176;49.156;7.810;2023-07-22T03:40:07;99080.63;;;12.88;78.05
75594;BME280;64176;49.156;7.810;2023-07-22T03:42:56;99081.47;;;12.90;78.08
75594;BME280;64176;49.156;7.810;2023-07-22T03:45:41;99078.03;;;12.88;77.83
75594;BME280;64176;49.156;7.810;2023-07-22T03:48:27;99065.34;;;12.44;79.05
75594;BME280;64176;49.156;7.810;2023-07-22T03:51:14;99079.16;;;12.40;80.56
75594;BME280;64176;49.156;7.810;2023-07-22T03:53:58;99077.31;;;12.63;79.93
75594;BME280;64176;49.156;7.810;2023-07-22T03:56:44;99060.94;;;12.55;79.21
75594;BME280;64176;49.156;7.810;2023-07-22T03:59:31;99069.53;;;12.62;79.39
75594;BME280;64176;49.156;7.810;2023-07-22T04:02:15;99030.66;;;12.63;78.38
75594;BME280;64176;49.156;7.810;2023-07-22T04:04:59;99070.31;;;12.76;78.67
75594;BME280;64176;49.156;7.810;2023-07-22T04:07:44;99061.81;;;12.57;79.42
75594;BME280;64176;49.156;7.810;2023-07-22T04:10:33;99074.66;;;12.71;79.28
75594;BME280;64176;49.156;7.810;2023-07-22T04:13:17;99067.72;;;12.79;79.04
75594;BME280;64176;49.156;7.810;2023-07-22T04:16:03;99071.91;;;12.95;78.11
75594;BME280;64176;49.156;7.810;2023-07-22T04:18:47;99078.75;;;13.05;77.58
75594;BME280;64176;49.156;7.810;2023-07-22T04:21:36;99051.31;;;12.74;78.90
75594;BME280;64176;49.156;7.810;2023-07-22T04:24:21;99083.09;;;13.03;78.13
75594;BME280;64176;49.156;7.810;2023-07-22T04:27:05;99083.09;;;13.03;78.39
75594;BME280;64176;49.156;7.810;2023-07-22T04:29:49;99071.06;;;12.93;78.12
75594;BME280;64176;49.156;7.810;2023-07-22T04:32:34;99071.97;;;12.91;78.33
75594;BME280;64176;49.156;7.810;2023-07-22T04:35:19;99073.72;;;12.86;78.57
75594;BME280;64176;49.156;7.810;2023-07-22T04:38:05;99067.72;;;12.77;78.55
75594;BME280;64176;49.156;7.810;2023-07-22T04:40:49;99084.06;;;12.90;79.14
75594;BME280;64176;49.156;7.810;2023-07-22T04:43:33;99081.31;;;13.13;77.87
75594;BME280;64176;49.156;7.810;2023-07-22T04:46:20;99079.53;;;13.23;77.70
75594;BME280;64176;49.156;7.810;2023-07-22T04:49:07;99066.56;;;13.24;77.00
75594;BME280;64176;49.156;7.810;2023-07-22T04:51:53;99080.25;;;13.38;77.05
75594;BME280;64176;49.156;7.810;2023-07-22T04:54:38;99084.75;;;13.21;78.19
75594;BME280;64176;49.156;7.810;2023-07-22T04:57:22;99081.22;;;13.27;77.88
75594;BME280;64176;49.156;7.810;2023-07-22T05:00:07;99079.47;;;13.30;77.44
75594;BME280;64176;49.156;7.810;2023-07-22T05:02:55;99077.66;;;13.37;76.91
75594;BME280;64176;49.156;7.810;2023-07-22T05:05:40;99077.00;;;13.10;77.78
75594;BME280;64176;49.156;7.810;2023-07-22T05:08:25;99083.91;;;13.13;77.91
75594;BME280;64176;49.156;7.810;2023-07-22T05:11:15;99054.47;;;13.20;77.55
75594;BME280;64176;49.156;7.810;2023-07-22T05:14:00;99078.50;;;13.43;77.08
75594;BME280;64176;49.156;7.810;2023-07-22T05:16:44;99077.44;;;13.64;76.05
75594;BME280;64176;49.156;7.810;2023-07-22T05:19:28;99071.47;;;13.53;76.80
75594;BME280;64176;49.156;7.810;2023-07-22T05:22:14;99079.88;;;13.79;75.43
75594;BME280;64176;49.156;7.810;2023-07-22T05:25:01;99071.03;;;13.94;75.37
75594;BME280;64176;49.156;7.810;2023-07-22T05:27:49;99078.91;;;13.88;76.16
75594;BME280;64176;49.156;7.810;2023-07-22T05:30:33;99077.13;;;13.93;75.52
75594;BME280;64176;49.156;7.810;2023-07-22T05:33:17;99077.28;;;13.78;75.80
75594;BME280;64176;49.156;7.810;2023-07-22T05:36:03;99079.00;;;13.80;76.08
75594;BME280;64176;49.156;7.810;2023-07-22T05:38:50;99089.22;;;13.94;75.22
75594;BME280;64176;49.156;7.810;2023-07-22T05:41:34;99095.44;;;13.81;76.30
75594;BME280;64176;49.156;7.810;2023-07-22T05:44:18;99092.75;;;13.90;76.02
75594;BME280;64176;49.156;7.810;2023-07-22T05:47:02;99097.88;;;13.98;76.05
75594;BME280;64176;49.156;7.810;2023-07-22T05:49:46;99098.59;;;14.09;75.86
75594;BME280;64176;49.156;7.810;2023-07-22T05:52:33;99101.94;;;14.20;75.61
75594;BME280;64176;49.156;7.810;2023-07-22T05:55:17;99099.25;;;14.26;75.32
75594;BME280;64176;49.156;7.810;2023-07-22T05:58:03;99082.94;;;14.15;75.70
75594;BME280;64176;49.156;7.810;2023-07-22T06:00:50;99096.38;;;14.53;74.57
75594;BME280;64176;49.156;7.810;2023-07-22T06:03:38;99098.78;;;14.69;73.97
75594;BME280;64176;49.156;7.810;2023-07-22T06:06:22;99096.81;;;14.84;73.60
75594;BME280;64176;49.156;7.810;2023-07-22T06:09:06;99099.25;;;14.95;72.84
75594;BME280;64176;49.156;7.810;2023-07-22T06:11:50;99100.34;;;15.36;71.30
75594;BME280;64176;49.156;7.810;2023-07-22T06:14:34;99092.25;;;15.52;70.05
75594;BME280;64176;49.156;7.810;2023-07-22T06:17:20;99105.31;;;15.49;70.36
75594;BME280;64176;49.156;7.810;2023-07-22T06:20:05;99096.56;;;15.56;68.30
75594;BME280;64176;49.156;7.810;2023-07-22T06:22:52;99102.34;;;16.20;66.33
75594;BME280;64176;49.156;7.810;2023-07-22T06:25:38;99107.38;;;16.27;65.50
75594;BME280;64176;49.156;7.810;2023-07-22T06:28:22;99109.13;;;16.70;64.23
75594;BME280;64176;49.156;7.810;2023-07-22T06:31:06;99101.88;;;16.84;64.33
75594;BME280;64176;49.156;7.810;2023-07-22T06:33:51;99105.56;;;17.13;63.08
75594;BME280;64176;49.156;7.810;2023-07-22T06:36:40;99093.03;;;17.27;62.91
75594;BME280;64176;49.156;7.810;2023-07-22T06:39:24;99095.19;;;19.29;57.01
75594;BME280;64176;49.156;7.810;2023-07-22T06:42:08;99097.38;;;20.44;52.52
75594;BME280;64176;49.156;7.810;2023-07-22T06:44:57;99101.84;;;20.42;52.08
75594;BME280;64176;49.156;7.810;2023-07-22T06:47:41;99094.13;;;21.49;48.90
75594;BME280;64176;49.156;7.810;2023-07-22T06:50:25;99089.25;;;21.40;48.03
75594;BME280;64176;49.156;7.810;2023-07-22T06:53:09;99086.69;;;21.59;48.41
75594;BME280;64176;49.156;7.810;2023-07-22T06:55:54;99082.53;;;22.15;45.84
75594;BME280;64176;49.156;7.810;2023-07-22T06:58:41;99085.47;;;22.47;45.65
75594;BME280;64176;49.156;7.810;2023-07-22T07:01:25;99083.03;;;22.81;45.34
75594;BME280;64176;49.156;7.810;2023-07-22T07:04:14;99081.50;;;22.76;45.34
75594;BME280;64176;49.156;7.810;2023-07-22T07:06:58;99088.50;;;22.77;44.87
75594;BME280;64176;49.156;7.810;2023-07-22T07:09:43;99079.25;;;23.23;44.20
75594;BME280;64176;49.156;7.810;2023-07-22T07:12:32;99077.41;;;23.61;43.38
75594;BME280;64176;49.156;7.810;2023-07-22T07:15:19;99080.88;;;23.08;44.58
75594;BME280;64176;49.156;7.810;2023-07-22T07:18:03;99080.28;;;23.38;44.11
75594;BME280;64176;49.156;7.810;2023-07-22T07:20:47;99076.13;;;22.79;44.91
75594;BME280;64176;49.156;7.810;2023-07-22T07:23:35;99072.75;;;22.94;44.77
75594;BME280;64176;49.156;7.810;2023-07-22T07:26:19;99088.69;;;22.14;46.47
75594;BME280;64176;49.156;7.810;2023-07-22T07:29:09;99089.09;;;22.44;46.84
75594;BME280;64176;49.156;7.810;2023-07-22T07:31:53;99088.41;;;21.39;48.64
75594;BME280;64176;49.156;7.810;2023-07-22T07:34:37;99097.09;;;21.20;49.04
75594;BME280;64176;49.156;7.810;2023-07-22T07:37:22;99080.91;;;21.51;48.41
75594;BME280;64176;49.156;7.810;2023-07-22T07:40:10;99096.28;;;21.39;48.53
75594;BME280;64176;49.156;7.810;2023-07-22T07:42:54;99083.50;;;21.30;49.12
75594;BME280;64176;49.156;7.810;2023-07-22T07:45:39;99094.00;;;21.08;49.72
75594;BME280;64176;49.156;7.810;2023-07-22T07:48:23;99081.84;;;21.70;48.33
75594;BME280;64176;49.156;7.810;2023-07-22T07:51:09;99081.03;;;21.48;48.49
75594;BME280;64176;49.156;7.810;2023-07-22T07:53:57;99084.47;;;21.50;47.69
75594;BME280;64176;49.156;7.810;2023-07-22T07:56:42;99087.28;;;21.45;48.44
75594;BME280;64176;49.156;7.810;2023-07-22T07:59:28;99081.88;;;21.28;48.96
75594;BME280;64176;49.156;7.810;2023-07-22T08:02:12;99085.72;;;21.19;49.22
75594;BME280;64176;49.156;7.810;2023-07-22T08:04:56;99087.53;;;20.95;48.84
75594;BME280;64176;49.156;7.810;2023-07-22T08:07:40;99079.72;;;21.58;48.28
75594;BME280;64176;49.156;7.810;2023-07-22T08:10:24;99086.34;;;20.81;49.72
75594;BME280;64176;49.156;7.810;2023-07-22T08:13:08;99086.94;;;20.65;50.27
75594;BME280;64176;49.156;7.810;2023-07-22T08:15:53;99078.38;;;21.27;49.49
75594;BME280;64176;49.156;7.810;2023-07-22T08:18:37;99077.00;;;21.17;49.64
75594;BME280;64176;49.156;7.810;2023-07-22T08:21:22;99079.97;;;21.31;49.92
75594;BME280;64176;49.156;7.810;2023-07-22T08:24:06;99084.16;;;21.35;49.34
75594;BME280;64176;49.156;7.810;2023-07-22T08:26:50;99079.34;;;21.87;48.71
75594;BME280;64176;49.156;7.810;2023-07-22T08:29:36;99078.66;;;22.62;48.08
75594;BME280;64176;49.156;7.810;2023-07-22T08:32:20;99072.50;;;22.24;47.42
75594;BME280;64176;49.156;7.810;2023-07-22T08:35:07;99079.69;;;22.20;45.94
75594;BME280;64176;49.156;7.810;2023-07-22T08:37:51;99075.50;;;22.35;45.55
75594;BME280;64176;49.156;7.810;2023-07-22T08:40:36;99057.56;;;23.35;43.56
75594;BME280;64176;49.156;7.810;2023-07-22T08:43:23;99078.25;;;22.90;43.84
75594;BME280;64176;49.156;7.810;2023-07-22T08:46:08;99069.28;;;23.30;42.19
75594;BME280;64176;49.156;7.810;2023-07-22T08:48:53;99082.06;;;22.45;44.93
75594;BME280;64176;49.156;7.810;2023-07-22T08:51:39;99085.88;;;22.77;44.62
75594;BME280;64176;49.156;7.810;2023-07-22T08:54:26;99075.44;;;22.75;43.45
75594;BME280;64176;49.156;7.810;2023-07-22T08:57:17;99065.78;;;22.74;44.21
75594;BME280;64176;49.156;7.810;2023-07-22T09:00:03;99072.56;;;22.22;45.09
75594;BME280;64176;49.156;7.810;2023-07-22T09:02:52;99069.22;;;21.78;46.31
75594;BME280;64176;49.156;7.810;2023-07-22T09:05:37;99078.06;;;22.36;45.07
75594;BME280;64176;49.156;7.810;2023-07-22T09:08:27;99072.38;;;22.27;44.37
75594;BME280;64176;49.156;7.810;2023-07-22T09:11:11;99081.63;;;22.35;43.31
75594;BME280;64176;49.156;7.810;2023-07-22T09:13:56;99063.09;;;22.18;43.46
75594;BME280;64176;49.156;7.810;2023-07-22T09:16:43;99073.53;;;22.40;43.06
75594;BME280;64176;49.156;7.810;2023-07-22T09:19:29;99072.56;;;22.22;43.88
75594;BME280;64176;49.156;7.810;2023-07-22T09:22:13;99056.13;;;22.36;42.57
75594;BME280;64176;49.156;7.810;2023-07-22T09:28:08;99048.47;;;22.50;42.72
75594;BME280;64176;49.156;7.810;2023-07-22T09:31:03;99050.31;;;22.67;42.47
75594;BME280;64176;49.156;7.810;2023-07-22T09:33:48;99048.53;;;22.48;42.52
75594;BME280;64176;49.156;7.810;2023-07-22T09:36:33;99052.31;;;22.62;41.96
75594;BME280;64176;49.156;7.810;2023-07-22T09:39:34;99044.97;;;22.68;41.74
75594;BME280;64176;49.156;7.810;2023-07-22T09:42:25;99047.53;;;22.88;41.72
75594;BME280;64176;49.156;7.810;2023-07-22T09:45:12;99049.53;;;22.27;42.70
75594;BME280;64176;49.156;7.810;2023-07-22T09:47:56;99044.00;;;22.52;42.69
75594;BME280;64176;49.156;7.810;2023-07-22T09:50:42;99059.38;;;22.22;42.15
75594;BME280;64176;49.156;7.810;2023-07-22T09:53:26;99060.78;;;22.31;42.78
75594;BME280;64176;49.156;7.810;2023-07-22T09:56:13;99044.75;;;22.17;41.67
75594;BME280;64176;49.156;7.810;2023-07-22T09:59:04;99053.16;;;22.62;40.12
75594;BME280;64176;49.156;7.810;2023-07-22T10:01:50;99049.63;;;22.63;40.94
75594;BME280;64176;49.156;7.810;2023-07-22T10:04:36;99042.78;;;22.59;40.75
75594;BME280;64176;49.156;7.810;2023-07-22T10:07:21;99047.59;;;22.68;40.21
75594;BME280;64176;49.156;7.810;2023-07-22T10:10:06;99029.72;;;22.94;39.21
75594;BME280;64176;49.156;7.810;2023-07-22T10:12:51;99029.81;;;22.92;39.81
75594;BME280;64176;49.156;7.810;2023-07-22T10:15:37;99029.53;;;23.33;40.47
75594;BME280;64176;49.156;7.810;2023-07-22T10:18:23;99030.66;;;23.29;41.51
75594;BME280;64176;49.156;7.810;2023-07-22T10:21:07;99035.78;;;22.77;40.21
75594;BME280;64176;49.156;7.810;2023-07-22T10:23:52;99029.41;;;22.64;41.29
75594;BME280;64176;49.156;7.810;2023-07-22T10:26:40;99016.75;;;22.89;40.77
75594;BME280;64176;49.156;7.810;2023-07-22T10:29:26;99030.97;;;23.40;39.71
75594;BME280;64176;49.156;7.810;2023-07-22T10:32:13;99028.72;;;23.49;40.11
75594;BME280;64176;49.156;7.810;2023-07-22T10:35:00;99019.78;;;23.35;40.13
75594;BME280;64176;49.156;7.810;2023-07-22T10:37:45;99032.06;;;23.53;39.47
75594;BME280;64176;49.156;7.810;2023-07-22T10:40:47;99031.75;;;23.59;37.74
75594;BME280;64176;49.156;7.810;2023-07-22T10:43:33;99029.78;;;23.28;38.18
75594;BME280;64176;49.156;7.810;2023-07-22T10:46:19;99020.69;;;23.52;36.65
75594;BME280;64176;49.156;7.810;2023-07-22T10:49:15;99023.72;;;23.95;37.61
75594;BME280;64176;49.156;7.810;2023-07-22T10:52:02;99027.75;;;23.52;37.00
75594;BME280;64176;49.156;7.810;2023-07-22T10:54:48;99017.88;;;23.55;36.42
75594;BME280;64176;49.156;7.810;2023-07-22T10:57:47;99019.59;;;23.89;36.73
75594;BME280;64176;49.156;7.810;2023-07-22T11:00:36;99020.91;;;23.98;36.75
75594;BME280;64176;49.156;7.810;2023-07-22T11:03:21;99018.88;;;23.53;37.43
75594;BME280;64176;49.156;7.810;2023-07-22T11:06:07;99015.63;;;22.95;38.30
75594;BME280;64176;49.156;7.810;2023-07-22T11:08:51;99019.06;;;23.31;38.31
75594;BME280;64176;49.156;7.810;2023-07-22T11:11:40;99017.50;;;23.10;37.42
75594;BME280;64176;49.156;7.810;2023-07-22T11:14:32;99020.94;;;23.29;37.06
75594;BME280;64176;49.156;7.810;2023-07-22T11:17:37;99009.31;;;23.68;36.81
75594;BME280;64176;49.156;7.810;2023-07-22T11:20:21;99007.75;;;23.81;35.96
75594;BME280;64176;49.156;7.810;2023-07-22T11:23:08;98991.97;;;24.12;35.11
75594;BME280;64176;49.156;7.810;2023-07-22T11:25:53;99008.97;;;23.91;35.50
75594;BME280;64176;49.156;7.810;2023-07-22T11:28:37;98996.41;;;23.96;35.68
75594;BME280;64176;49.156;7.810;2023-07-22T11:31:31;98991.56;;;23.71;36.04
75594;BME280;64176;49.156;7.810;2023-07-22T11:34:16;98985.13;;;24.41;35.08
75594;BME280;64176;49.156;7.810;2023-07-22T11:37:01;98993.63;;;24.15;35.04
75594;BME280;64176;49.156;7.810;2023-07-22T11:39:49;98977.72;;;23.99;35.37
75594;BME280;64176;49.156;7.810;2023-07-22T11:42:38;98971.69;;;24.30;34.96
75594;BME280;64176;49.156;7.810;2023-07-22T11:45:22;98983.97;;;24.94;34.04
75594;BME280;64176;49.156;7.810;2023-07-22T11:48:12;98968.75;;;24.19;33.95
75594;BME280;64176;49.156;7.810;2023-07-22T11:51:02;98985.16;;;23.75;35.08
75594;BME280;64176;49.156;7.810;2023-07-22T11:53:47;98975.50;;;23.91;35.85
75594;BME280;64176;49.156;7.810;2023-07-22T11:56:32;98975.22;;;23.80;35.15
75594;BME280;64176;49.156;7.810;2023-07-22T11:59:36;98974.88;;;23.86;34.60
75594;BME280;64176;49.156;7.810;2023-07-22T12:02:25;98972.78;;;23.93;35.00
75594;BME280;64176;49.156;7.810;2023-07-22T12:05:20;98980.16;;;24.19;34.66
75594;BME280;64176;49.156;7.810;2023-07-22T12:08:14;98975.22;;;23.80;35.03
75594;BME280;64176;49.156;7.810;2023-07-22T12:11:06;98968.72;;;23.70;36.04
75594;BME280;64176;49.156;7.810;2023-07-22T12:14:11;98962.94;;;23.97;36.99
75594;BME280;64176;49.156;7.810;2023-07-22T12:16:56;98954.44;;;24.07;35.47
75594;BME280;64176;49.156;7.810;2023-07-22T12:19:51;98948.31;;;24.07;35.14
75594;BME280;64176;49.156;7.810;2023-07-22T12:22:35;98960.59;;;24.55;34.34
75594;BME280;64176;49.156;7.810;2023-07-22T12:25:19;98952.84;;;24.36;34.50
75594;BME280;64176;49.156;7.810;2023-07-22T12:28:06;98948.19;;;23.92;35.56
75594;BME280;64176;49.156;7.810;2023-07-22T12:30:51;98950.47;;;23.50;36.34
75594;BME280;64176;49.156;7.810;2023-07-22T12:33:43;98946.19;;;23.80;35.54
75594;BME280;64176;49.156;7.810;2023-07-22T12:36:27;98941.09;;;24.57;35.63
75594;BME280;64176;49.156;7.810;2023-07-22T12:39:11;98943.41;;;24.48;34.48
75594;BME280;64176;49.156;7.810;2023-07-22T12:41:55;98948.84;;;24.29;33.89
75594;BME280;64176;49.156;7.810;2023-07-22T12:44:42;98945.00;;;24.35;34.45
75594;BME280;64176;49.156;7.810;2023-07-22T12:47:26;98948.03;;;24.11;34.21
75594;BME280;64176;49.156;7.810;2023-07-22T12:50:12;98947.25;;;24.09;35.00
75594;BME280;64176;49.156;7.810;2023-07-22T12:52:58;98944.47;;;24.12;34.54
75594;BME280;64176;49.156;7.810;2023-07-22T12:55:42;98934.44;;;24.19;35.42
75594;BME280;64176;49.156;7.810;2023-07-22T12:58:26;98942.31;;;24.03;35.83
75594;BME280;64176;49.156;7.810;2023-07-22T13:01:10;98946.63;;;23.88;35.95
75594;BME280;64176;49.156;7.810;2023-07-22T13:03:54;98946.97;;;23.98;35.68
75594;BME280;64176;49.156;7.810;2023-07-22T13:06:41;98943.63;;;24.43;35.00
75594;BME280;64176;49.156;7.810;2023-07-22T13:09:27;98932.22;;;24.43;34.80
75594;BME280;64176;49.156;7.810;2023-07-22T13:12:11;98934.16;;;24.55;34.56
75594;BME280;64176;49.156;7.810;2023-07-22T13:14:57;98931.44;;;24.72;34.35
75594;BME280;64176;49.156;7.810;2023-07-22T13:17:41;98937.59;;;24.57;34.45
75594;BME280;64176;49.156;7.810;2023-07-22T13:20:25;98942.38;;;24.50;34.68
75594;BME280;64176;49.156;7.810;2023-07-22T13:23:10;98940.34;;;24.40;34.83
75594;BME280;64176;49.156;7.810;2023-07-22T13:25:54;98937.25;;;24.31;35.10
75594;BME280;64176;49.156;7.810;2023-07-22T13:28:41;98936.00;;;24.39;34.85
75594;BME280;64176;49.156;7.810;2023-07-22T13:31:25;98926.75;;;24.61;34.77
75594;BME280;64176;49.156;7.810;2023-07-22T13:34:09;98924.47;;;25.01;35.21
75594;BME280;64176;49.156;7.810;2023-07-22T13:36:55;98929.28;;;24.79;35.30
75594;BME280;64176;49.156;7.810;2023-07-22T13:39:39;98931.78;;;24.19;35.13
75594;BME280;64176;49.156;7.810;2023-07-22T13:42:24;98933.88;;;24.29;34.96
75594;BME280;64176;49.156;7.810;2023-07-22T13:45:11;98918.69;;;24.33;34.52
75594;BME280;64176;49.156;7.810;2023-07-22T13:47:55;98920.38;;;24.50;34.48
75594;BME280;64176;49.156;7.810;2023-07-22T13:50:39;98925.44;;;24.39;34.68
75594;BME280;64176;49.156;7.810;2023-07-22T13:53:24;98925.94;;;24.75;34.96
75594;BME280;64176;49.156;7.810;2023-07-22T13:56:08;98922.22;;;24.79;34.45
75594;BME280;64176;49.156;7.810;2023-07-22T13:58:54;98919.78;;;24.60;35.23
75594;BME280;64176;49.156;7.810;2023-07-22T14:01:38;98912.75;;;24.75;34.89
75594;BME280;64176;49.156;7.810;2023-07-22T14:04:24;98907.13;;;24.65;34.56
75594;BME280;64176;49.156;7.810;2023-07-22T14:07:08;98915.53;;;24.88;34.53
75594;BME280;64176;49.156;7.810;2023-07-22T14:09:55;98910.00;;;24.77;34.24
75594;BME280;64176;49.156;7.810;2023-07-22T14:12:41;98901.78;;;24.20;35.54
75594;BME280;64176;49.156;7.810;2023-07-22T14:15:25;98898.16;;;24.38;34.54
75594;BME280;64176;49.156;7.810;2023-07-22T14:18:12;98890.03;;;24.57;34.99
75594;BME280;64176;49.156;7.810;2023-07-22T14:21:00;98898.97;;;24.54;34.73
75594;BME280;64176;49.156;7.810;2023-07-22T14:23:44;98888.56;;;24.97;34.50
75594;BME280;64176;49.156;7.810;2023-07-22T14:26:31;98887.59;;;24.84;34.08
75594;BME280;64176;49.156;7.810;2023-07-22T14:29:15;98898.41;;;24.79;33.99
75594;BME280;64176;49.156;7.810;2023-07-22T14:32:03;98891.91;;;25.00;33.86
75594;BME280;64176;49.156;7.810;2023-07-22T14:34:50;98889.56;;;24.64;34.09
75594;BME280;64176;49.156;7.810;2023-07-22T14:37:36;98883.34;;;24.65;34.22
75594;BME280;64176;49.156;7.810;2023-07-22T14:40:22;98900.88;;;24.82;33.77
75594;BME280;64176;49.156;7.810;2023-07-22T14:43:08;98895.91;;;24.46;34.61